createdAt,value
2022-10-28T00:00:05.689Z,29.40
2022-10-28T00:05:34.100Z,29.00
2022-10-28T00:10:37.458Z,27.80
2022-10-28T00:15:40.470Z,32.50
2022-10-28T00:20:43.515Z,32.60
2022-10-28T00:25:46.471Z,31.20
2022-10-28T00:30:49.408Z,31.00
2022-10-28T00:35:52.375Z,25.90
2022-10-28T00:40:55.405Z,27.00
2022-10-28T00:45:58.694Z,27.80
2022-10-28T00:51:03.467Z,29.60
2022-10-28T00:56:08.868Z,27.90
2022-10-28T01:01:11.875Z,27.50
2022-10-28T01:06:15.579Z,25.20
2022-10-28T01:11:45.452Z,22.90
2022-10-28T01:17:24.911Z,20.50
2022-10-28T01:22:27.879Z,21.40
2022-10-28T01:28:11.370Z,28.80
2022-10-28T01:34:13.171Z,26.20
2022-10-28T01:39:47.490Z,24.00
2022-10-28T01:45:08.922Z,22.20
2022-10-28T01:50:44.403Z,21.00
2022-10-28T01:55:54.149Z,21.60
2022-10-28T02:01:01.012Z,22.70
2022-10-28T02:06:11.375Z,26.20
2022-10-28T02:11:55.487Z,24.10
2022-10-28T02:17:10.782Z,23.30
2022-10-28T02:22:41.024Z,22.00
2022-10-28T02:28:00.642Z,21.30
2022-10-28T02:33:10.799Z,18.90
2022-10-28T02:38:39.903Z,25.00
2022-10-28T02:43:46.026Z,21.70
2022-10-28T02:48:55.287Z,19.30
2022-10-28T02:54:09.749Z,20.20
2022-10-28T02:59:13.798Z,19.00
2022-10-28T03:04:16.832Z,17.00
2022-10-28T03:09:19.869Z,17.30
2022-10-28T03:14:22.947Z,20.70
2022-10-28T03:19:25.958Z,19.30
2022-10-28T03:24:28.953Z,18.10
2022-10-28T03:29:32.265Z,16.40
2022-10-28T03:34:35.268Z,19.30
2022-10-28T03:39:38.270Z,19.30
2022-10-28T03:44:41.296Z,22.20
2022-10-28T03:49:44.279Z,19.10
2022-10-28T03:54:47.285Z,19.10
2022-10-28T03:59:50.288Z,18.90
2022-10-28T04:04:53.606Z,18.20
2022-10-28T04:09:56.601Z,17.90
2022-10-28T04:14:59.647Z,17.50
2022-10-28T04:20:02.734Z,19.90
2022-10-28T04:25:06.556Z,18.70
2022-10-28T04:30:13.073Z,18.40
2022-10-28T04:35:16.333Z,18.30
2022-10-28T04:40:19.351Z,18.10
2022-10-28T04:45:22.439Z,17.80
2022-10-28T04:50:26.074Z,17.20
2022-10-28T04:55:29.265Z,21.30
2022-10-28T05:00:32.488Z,21.00
2022-10-28T05:05:37.630Z,19.80
2022-10-28T05:10:40.666Z,18.40
2022-10-28T05:15:44.149Z,20.30
2022-10-28T05:20:47.257Z,16.80
2022-10-28T05:25:52.004Z,15.90
2022-10-28T05:30:55.043Z,21.40
2022-10-28T05:36:00.111Z,19.20
2022-10-28T05:41:03.814Z,16.20
2022-10-28T05:46:06.780Z,17.20
2022-10-28T05:51:09.802Z,16.10
2022-10-28T05:56:12.793Z,16.60
2022-10-28T06:01:15.856Z,18.70
2022-10-28T06:06:18.897Z,16.30
2022-10-28T06:11:20.323Z,18.50
2022-10-28T06:16:23.311Z,19.20
2022-10-28T06:21:26.380Z,16.20
2022-10-28T06:26:29.390Z,16.90
2022-10-28T06:31:32.431Z,15.70
2022-10-28T06:36:35.714Z,22.20
2022-10-28T06:41:38.972Z,24.00
2022-10-28T06:46:43.562Z,18.50
2022-10-28T06:51:46.659Z,17.40
2022-10-28T06:56:49.679Z,17.60
2022-10-28T07:01:52.903Z,17.10
2022-10-28T07:06:59.371Z,21.80
2022-10-28T07:12:05.049Z,20.50
2022-10-28T07:17:08.869Z,20.10
2022-10-28T07:22:12.378Z,17.60
2022-10-28T07:27:15.602Z,18.90
2022-10-28T07:32:18.726Z,17.00
2022-10-28T07:37:22.030Z,19.20
2022-10-28T07:42:25.139Z,19.70
2022-10-28T07:47:28.481Z,18.20
2022-10-28T07:52:31.951Z,16.00
2022-10-28T07:57:36.003Z,16.90
2022-10-28T08:02:39.861Z,17.00
2022-10-28T08:07:42.943Z,22.50
2022-10-28T08:12:46.758Z,19.00
2022-10-28T08:17:54.217Z,20.70
2022-10-28T08:23:01.771Z,19.80
2022-10-28T08:28:07.188Z,18.10
2022-10-28T08:33:10.477Z,16.80
2022-10-28T08:38:13.484Z,17.40
2022-10-28T08:43:57.115Z,17.70
2022-10-28T08:49:14.458Z,22.40
2022-10-28T08:54:50.676Z,21.10
2022-10-28T08:59:55.249Z,24.90
2022-10-28T09:05:23.056Z,23.00
2022-10-28T09:10:43.096Z,16.30
2022-10-28T09:16:24.702Z,17.70
2022-10-28T09:21:45.644Z,17.80
2022-10-28T09:27:17.307Z,16.80
2022-10-28T09:32:30.010Z,16.70
2022-10-28T09:37:41.540Z,17.70
2022-10-28T09:43:28.065Z,15.80
2022-10-28T09:48:55.967Z,18.70
2022-10-28T09:54:01.440Z,17.80
2022-10-28T09:59:05.540Z,15.80
2022-10-28T10:04:31.309Z,17.70
2022-10-28T10:14:49.190Z,14.30
2022-10-28T10:20:15.206Z,15.60
2022-10-28T10:25:18.118Z,15.30
2022-10-28T10:30:56.810Z,15.50
2022-10-28T10:36:10.744Z,15.60
2022-10-28T10:41:36.939Z,14.80
2022-10-28T10:46:39.877Z,15.20
2022-10-28T10:51:59.835Z,15.60
2022-10-28T10:57:20.788Z,15.30
2022-10-28T11:02:31.685Z,13.60
2022-10-28T11:07:37.515Z,14.50
2022-10-28T11:12:54.417Z,13.90
2022-10-28T11:18:21.664Z,13.70
2022-10-28T11:23:33.946Z,12.90
2022-10-28T11:28:59.705Z,10.40
2022-10-28T11:35:01.076Z,9.80
2022-10-28T11:40:32.549Z,10.30
2022-10-28T11:45:51.315Z,10.50
2022-10-28T11:51:28.528Z,9.90
2022-10-28T11:56:43.358Z,9.90
2022-10-28T12:02:20.381Z,10.50
2022-10-28T12:07:29.368Z,11.00
2022-10-28T12:12:47.197Z,13.70
2022-10-28T12:17:58.402Z,13.70
2022-10-28T12:23:23.762Z,15.10
2022-10-28T12:28:58.999Z,16.00
2022-10-28T12:34:10.466Z,17.50
2022-10-28T12:39:44.339Z,18.20
2022-10-28T12:44:52.957Z,16.70
2022-10-28T12:50:28.218Z,16.50
2022-10-28T12:56:00.964Z,15.80
2022-10-28T13:01:21.345Z,16.80
2022-10-28T13:07:06.010Z,18.80
2022-10-28T13:12:26.962Z,20.40
2022-10-28T13:18:28.098Z,17.50
2022-10-28T13:23:58.240Z,17.00
2022-10-28T13:29:07.360Z,18.90
2022-10-28T13:34:15.113Z,17.70
2022-10-28T13:39:31.828Z,19.80
2022-10-28T13:44:58.875Z,19.80
2022-10-28T13:50:34.424Z,23.70
2022-10-28T13:55:40.943Z,19.90
2022-10-28T14:00:46.746Z,15.20
2022-10-28T14:06:02.646Z,16.20
2022-10-28T14:11:22.416Z,13.60
2022-10-28T14:16:34.343Z,15.60
2022-10-28T14:22:07.179Z,13.80
2022-10-28T14:27:43.922Z,14.40
2022-10-28T14:32:50.001Z,14.20
2022-10-28T14:38:10.118Z,13.20
2022-10-28T14:43:46.413Z,16.40
2022-10-28T14:49:24.315Z,16.90
2022-10-28T14:54:39.813Z,15.00
2022-10-28T14:59:45.706Z,22.40
2022-10-28T15:05:00.773Z,24.10
2022-10-28T15:10:38.276Z,18.20
2022-10-28T15:16:03.804Z,18.00
2022-10-28T15:21:16.785Z,17.60
2022-10-28T15:26:19.852Z,15.20
2022-10-28T15:31:23.012Z,18.90
2022-10-28T15:36:49.474Z,16.50
2022-10-28T15:41:54.547Z,17.30
2022-10-28T15:47:00.321Z,16.40
2022-10-28T15:52:19.059Z,17.80
2022-10-28T15:57:30.164Z,19.60
2022-10-28T16:02:41.366Z,21.80
2022-10-28T16:07:45.935Z,18.30
2022-10-28T16:13:10.603Z,20.90
2022-10-28T16:18:42.332Z,24.50
2022-10-28T16:23:49.585Z,19.30
2022-10-28T16:28:53.615Z,17.50
2022-10-28T16:33:59.938Z,16.50
2022-10-28T16:39:03.070Z,16.80
2022-10-28T16:44:10.156Z,18.00
2022-10-28T16:49:13.378Z,19.10
2022-10-28T16:54:16.353Z,17.30
2022-10-28T16:59:19.370Z,18.60
2022-10-28T17:04:22.571Z,19.60
2022-10-28T17:09:25.571Z,17.90
2022-10-28T17:14:28.579Z,17.70
2022-10-28T17:19:31.685Z,16.40
2022-10-28T17:24:35.202Z,19.20
2022-10-28T17:29:39.031Z,20.00
2022-10-28T17:34:42.642Z,22.00
2022-10-28T17:39:45.805Z,19.90
2022-10-28T17:45:07.794Z,20.30
2022-10-28T17:50:10.905Z,18.70
2022-10-28T17:55:13.910Z,18.30
2022-10-28T18:00:34.421Z,18.70
2022-10-28T18:05:56.674Z,17.80
2022-10-28T18:11:00.399Z,20.00
2022-10-28T18:16:05.762Z,21.40
2022-10-28T18:21:11.725Z,23.80
2022-10-28T18:26:35.946Z,21.00
2022-10-28T18:31:42.297Z,19.10
2022-10-28T18:36:45.942Z,29.40
2022-10-28T18:41:51.575Z,28.60
2022-10-28T18:46:54.908Z,23.70
2022-10-28T18:51:59.762Z,34.40
2022-10-28T18:57:20.272Z,29.90
2022-10-28T19:02:23.770Z,47.10
2022-10-28T19:07:45.219Z,38.90
2022-10-28T19:12:52.778Z,24.90
2022-10-28T19:17:56.415Z,31.70
2022-10-28T19:23:18.807Z,30.80
2022-10-28T19:28:23.053Z,21.90
2022-10-28T19:33:28.232Z,19.50
2022-10-28T19:38:34.223Z,17.80
2022-10-28T19:43:38.093Z,19.90
2022-10-28T19:48:45.518Z,16.90
2022-10-28T19:53:57.946Z,18.40
2022-10-28T19:59:04.781Z,19.40
2022-10-28T20:04:10.257Z,22.50
2022-10-28T20:09:14.511Z,18.50
2022-10-28T20:14:17.828Z,17.60
2022-10-28T20:19:38.749Z,16.80
2022-10-28T20:24:41.883Z,22.20
2022-10-28T20:29:44.859Z,20.20
2022-10-28T20:34:47.996Z,21.60
2022-10-28T20:40:10.322Z,17.20
2022-10-28T20:45:14.147Z,20.80
2022-10-28T20:50:17.658Z,19.60
2022-10-28T20:55:20.762Z,22.00
2022-10-28T21:00:24.111Z,20.50
2022-10-28T21:05:27.190Z,15.50
2022-10-28T21:10:30.289Z,15.80
2022-10-28T21:15:56.389Z,14.90
2022-10-28T21:21:21.224Z,16.20
2022-10-28T21:26:41.578Z,15.50
2022-10-28T21:31:44.673Z,15.70
2022-10-28T21:37:05.178Z,15.30
2022-10-28T21:42:25.847Z,15.00
2022-10-28T21:47:29.116Z,14.40
2022-10-28T21:52:32.221Z,16.40
2022-10-28T21:57:35.320Z,13.00
2022-10-28T22:02:38.530Z,14.70
2022-10-28T22:07:41.637Z,15.50
2022-10-28T22:12:44.757Z,15.40
2022-10-28T22:17:48.358Z,21.50
2022-10-28T22:22:51.465Z,17.00
2022-10-28T22:27:54.571Z,11.60
2022-10-28T22:32:59.952Z,18.30
2022-10-28T22:38:03.035Z,15.20
2022-10-28T22:43:06.278Z,15.30
2022-10-28T22:48:28.316Z,13.80
2022-10-28T22:53:31.400Z,14.10
2022-10-28T22:58:35.029Z,13.70
2022-10-28T23:03:44.513Z,13.60
2022-10-28T23:09:05.098Z,12.70
2022-10-28T23:14:08.414Z,15.30
2022-10-28T23:19:29.231Z,13.60
2022-10-28T23:24:32.329Z,13.40
2022-10-28T23:29:53.661Z,13.10
2022-10-28T23:34:56.769Z,12.50
2022-10-28T23:39:59.917Z,13.00
2022-10-28T23:45:03.287Z,12.90
2022-10-28T23:50:06.633Z,13.70
2022-10-28T23:55:10.420Z,14.00
